sensor_id;sensor_type;location;lat;lon;timestamp;pressure;altitude;pressure_sealevel;temperature;humidity
78894;BME280;68282;42.698;23.350;2024-02-26T00:00:34;95046.75;;;11.30;62.53
78894;BME280;68282;42.698;23.350;2024-02-26T00:03:00;95043.81;;;11.32;62.51
78894;BME280;68282;42.698;23.350;2024-02-26T00:05:26;95040.00;;;11.33;62.52
78894;BME280;68282;42.698;23.350;2024-02-26T00:07:52;95033.97;;;11.31;62.56
78894;BME280;68282;42.698;23.350;2024-02-26T00:10:17;95028.22;;;11.27;62.36
78894;BME280;68282;42.698;23.350;2024-02-26T00:12:43;95008.50;;;11.20;62.57
78894;BME280;68282;42.698;23.350;2024-02-26T00:15:09;95004.31;;;11.12;62.54
78894;BME280;68282;42.698;23.350;2024-02-26T00:17:35;95031.13;;;11.20;62.69
78894;BME280;68282;42.698;23.350;2024-02-26T00:20:04;95026.91;;;11.12;63.10
78894;BME280;68282;42.698;23.350;2024-02-26T00:22:33;95028.66;;;11.02;63.15
78894;BME280;68282;42.698;23.350;2024-02-26T00:25:02;95022.66;;;11.00;63.51
78894;BME280;68282;42.698;23.350;2024-02-26T00:27:28;95027.19;;;11.11;63.25
78894;BME280;68282;42.698;23.350;2024-02-26T00:29:54;95010.75;;;11.06;62.80
78894;BME280;68282;42.698;23.350;2024-02-26T00:32:20;95027.91;;;11.23;62.81
78894;BME280;68282;42.698;23.350;2024-02-26T00:34:45;95016.34;;;11.16;62.97
78894;BME280;68282;42.698;23.350;2024-02-26T00:37:11;95007.94;;;11.18;62.91
78894;BME280;68282;42.698;23.350;2024-02-26T00:39:36;95009.16;;;11.27;62.73
78894;BME280;68282;42.698;23.350;2024-02-26T00:42:02;94999.19;;;11.16;63.01
78894;BME280;68282;42.698;23.350;2024-02-26T00:44:28;95000.34;;;11.20;62.92
78894;BME280;68282;42.698;23.350;2024-02-26T00:46:53;94990.72;;;11.12;63.25
78894;BME280;68282;42.698;23.350;2024-02-26T00:49:19;95005.13;;;11.12;63.10
78894;BME280;68282;42.698;23.350;2024-02-26T00:51:44;95000.09;;;11.21;63.14
78894;BME280;68282;42.698;23.350;2024-02-26T00:54:10;94990.72;;;11.12;62.87
78894;BME280;68282;42.698;23.350;2024-02-26T00:56:35;94993.94;;;11.09;62.97
78894;BME280;68282;42.698;23.350;2024-02-26T00:59:01;94976.72;;;11.03;62.81
78894;BME280;68282;42.698;23.350;2024-02-26T01:01:26;94978.41;;;11.09;62.87
78894;BME280;68282;42.698;23.350;2024-02-26T01:03:52;94984.19;;;11.13;62.60
78894;BME280;68282;42.698;23.350;2024-02-26T01:06:17;94983.44;;;11.18;62.53
78894;BME280;68282;42.698;23.350;2024-02-26T01:08:43;94983.19;;;11.19;62.85
78894;BME280;68282;42.698;23.350;2024-02-26T01:11:08;94984.53;;;11.17;62.71
78894;BME280;68282;42.698;23.350;2024-02-26T01:13:34;94972.16;;;11.09;62.92
78894;BME280;68282;42.698;23.350;2024-02-26T01:16:01;94984.44;;;11.11;63.04
78894;BME280;68282;42.698;23.350;2024-02-26T01:18:27;94976.84;;;11.13;62.68
78894;BME280;68282;42.698;23.350;2024-02-26T01:20:53;94970.00;;;11.11;62.77
78894;BME280;68282;42.698;23.350;2024-02-26T01:23:20;94982.38;;;11.19;62.84
78894;BME280;68282;42.698;23.350;2024-02-26T01:25:45;94983.28;;;11.24;62.31
78894;BME280;68282;42.698;23.350;2024-02-26T01:28:12;94981.81;;;11.17;62.23
78894;BME280;68282;42.698;23.350;2024-02-26T01:30:38;94987.56;;;11.20;62.53
78894;BME280;68282;42.698;23.350;2024-02-26T01:33:03;94974.94;;;11.14;62.38
78894;BME280;68282;42.698;23.350;2024-02-26T01:35:30;94968.06;;;11.06;62.88
78894;BME280;68282;42.698;23.350;2024-02-26T01:37:56;94959.78;;;11.01;62.68
78894;BME280;68282;42.698;23.350;2024-02-26T01:40:27;94975.94;;;11.08;62.53
78894;BME280;68282;42.698;23.350;2024-02-26T01:42:53;94960.69;;;11.07;62.42
78894;BME280;68282;42.698;23.350;2024-02-26T01:45:19;94973.81;;;11.10;62.39
78894;BME280;68282;42.698;23.350;2024-02-26T01:47:52;94978.66;;;11.08;62.90
78894;BME280;68282;42.698;23.350;2024-02-26T01:50:19;94968.06;;;11.06;62.81
78894;BME280;68282;42.698;23.350;2024-02-26T01:52:46;94954.44;;;11.06;62.82
78894;BME280;68282;42.698;23.350;2024-02-26T01:55:13;94953.03;;;11.04;62.75
78894;BME280;68282;42.698;23.350;2024-02-26T01:57:42;94966.78;;;11.14;62.47
78894;BME280;68282;42.698;23.350;2024-02-26T02:00:09;94961.28;;;11.09;62.66
78894;BME280;68282;42.698;23.350;2024-02-26T02:02:35;94957.47;;;11.10;62.55
78894;BME280;68282;42.698;23.350;2024-02-26T02:05:01;94958.56;;;11.09;62.39
78894;BME280;68282;42.698;23.350;2024-02-26T02:07:28;94959.31;;;11.04;62.61
78894;BME280;68282;42.698;23.350;2024-02-26T02:09:54;94951.38;;;11.03;62.73
78894;BME280;68282;42.698;23.350;2024-02-26T02:12:20;94960.13;;;11.05;62.43
78894;BME280;68282;42.698;23.350;2024-02-26T02:14:46;94957.97;;;11.07;62.62
78894;BME280;68282;42.698;23.350;2024-02-26T02:17:12;94954.75;;;11.10;63.00
78894;BME280;68282;42.698;23.350;2024-02-26T02:19:38;94952.84;;;11.10;62.94
78894;BME280;68282;42.698;23.350;2024-02-26T02:22:03;94949.06;;;11.11;62.65
78894;BME280;68282;42.698;23.350;2024-02-26T02:24:29;94955.50;;;11.05;62.72
78894;BME280;68282;42.698;23.350;2024-02-26T02:26:55;94961.59;;;11.12;62.67
78894;BME280;68282;42.698;23.350;2024-02-26T02:29:21;94952.03;;;11.10;63.01
78894;BME280;68282;42.698;23.350;2024-02-26T02:31:46;94939.50;;;11.09;62.51
78894;BME280;68282;42.698;23.350;2024-02-26T02:34:13;94953.75;;;11.16;62.42
78894;BME280;68282;42.698;23.350;2024-02-26T02:36:52;94954.56;;;11.17;62.86
78894;BME280;68282;42.698;23.350;2024-02-26T02:39:18;94948.81;;;11.13;62.52
78894;BME280;68282;42.698;23.350;2024-02-26T02:41:44;94953.25;;;11.19;63.01
78894;BME280;68282;42.698;23.350;2024-02-26T02:44:10;94956.28;;;11.23;63.07
78894;BME280;68282;42.698;23.350;2024-02-26T02:46:35;94963.06;;;11.20;62.68
78894;BME280;68282;42.698;23.350;2024-02-26T02:49:01;94965.28;;;11.23;62.64
78894;BME280;68282;42.698;23.350;2024-02-26T02:51:27;94961.91;;;11.16;62.92
78894;BME280;68282;42.698;23.350;2024-02-26T02:53:52;94974.75;;;11.21;62.95
78894;BME280;68282;42.698;23.350;2024-02-26T02:56:18;94962.16;;;11.14;62.92
78894;BME280;68282;42.698;23.350;2024-02-26T02:58:44;94973.81;;;11.10;63.31
78894;BME280;68282;42.698;23.350;2024-02-26T03:01:09;94961.75;;;11.06;63.27
78894;BME280;68282;42.698;23.350;2024-02-26T03:03:34;94959.00;;;11.01;63.34
78894;BME280;68282;42.698;23.350;2024-02-26T03:06:02;94974.03;;;11.08;63.17
78894;BME280;68282;42.698;23.350;2024-02-26T03:08:28;94963.72;;;11.10;63.28
78894;BME280;68282;42.698;23.350;2024-02-26T03:10:54;94968.78;;;11.19;62.88
78894;BME280;68282;42.698;23.350;2024-02-26T03:13:21;94966.22;;;11.12;62.78
78894;BME280;68282;42.698;23.350;2024-02-26T03:15:46;94977.75;;;11.19;62.48
78894;BME280;68282;42.698;23.350;2024-02-26T03:18:12;94966.84;;;11.19;62.41
78894;BME280;68282;42.698;23.350;2024-02-26T03:20:37;94970.47;;;11.25;62.31
78894;BME280;68282;42.698;23.350;2024-02-26T03:23:03;94966.69;;;11.26;62.17
78894;BME280;68282;42.698;23.350;2024-02-26T03:25:29;94971.06;;;11.27;62.42
78894;BME280;68282;42.698;23.350;2024-02-26T03:27:54;94956.84;;;11.25;62.34
78894;BME280;68282;42.698;23.350;2024-02-26T03:30:20;94954.44;;;11.28;62.25
78894;BME280;68282;42.698;23.350;2024-02-26T03:32:45;94958.50;;;11.26;62.36
78894;BME280;68282;42.698;23.350;2024-02-26T03:35:12;94950.03;;;11.22;62.22
78894;BME280;68282;42.698;23.350;2024-02-26T03:37:37;94948.06;;;11.18;62.63
78894;BME280;68282;42.698;23.350;2024-02-26T03:40:03;94952.75;;;11.22;62.30
78894;BME280;68282;42.698;23.350;2024-02-26T03:42:29;94950.25;;;11.21;62.58
78894;BME280;68282;42.698;23.350;2024-02-26T03:44:54;94946.09;;;11.13;62.61
78894;BME280;68282;42.698;23.350;2024-02-26T03:47:20;94955.34;;;11.12;62.59
78894;BME280;68282;42.698;23.350;2024-02-26T03:49:45;94951.72;;;11.06;62.86
78894;BME280;68282;42.698;23.350;2024-02-26T03:52:11;94944.31;;;11.02;62.56
78894;BME280;68282;42.698;23.350;2024-02-26T03:54:36;94953.59;;;11.06;62.84
78894;BME280;68282;42.698;23.350;2024-02-26T03:57:02;94927.09;;;10.96;62.67
78894;BME280;68282;42.698;23.350;2024-02-26T03:59:28;94947.66;;;11.09;62.86
78894;BME280;68282;42.698;23.350;2024-02-26T04:01:53;94937.22;;;11.01;62.94
78894;BME280;68282;42.698;23.350;2024-02-26T04:04:19;94939.69;;;11.02;62.95
78894;BME280;68282;42.698;23.350;2024-02-26T04:06:45;94935.03;;;11.03;62.52
78894;BME280;68282;42.698;23.350;2024-02-26T04:09:13;94937.03;;;11.07;62.91
78894;BME280;68282;42.698;23.350;2024-02-26T04:11:39;94923.66;;;11.06;62.89
78894;BME280;68282;42.698;23.350;2024-02-26T04:14:04;94929.06;;;11.01;62.76
78894;BME280;68282;42.698;23.350;2024-02-26T04:16:31;94932.28;;;10.97;62.81
78894;BME280;68282;42.698;23.350;2024-02-26T04:18:56;94921.88;;;10.94;62.82
78894;BME280;68282;42.698;23.350;2024-02-26T04:21:22;94924.59;;;10.94;63.21
78894;BME280;68282;42.698;23.350;2024-02-26T04:23:47;94919.09;;;10.89;63.41
78894;BME280;68282;42.698;23.350;2024-02-26T04:26:14;94916.97;;;10.91;63.03
78894;BME280;68282;42.698;23.350;2024-02-26T04:28:40;94932.28;;;10.97;63.03
78894;BME280;68282;42.698;23.350;2024-02-26T04:31:05;94933.66;;;11.00;63.17
78894;BME280;68282;42.698;23.350;2024-02-26T04:33:34;94917.91;;;11.02;62.85
78894;BME280;68282;42.698;23.350;2024-02-26T04:36:00;94920.53;;;10.97;62.67
78894;BME280;68282;42.698;23.350;2024-02-26T04:38:25;94930.19;;;11.05;62.55
78894;BME280;68282;42.698;23.350;2024-02-26T04:40:51;94943.22;;;11.03;62.29
78894;BME280;68282;42.698;23.350;2024-02-26T04:43:16;94937.72;;;10.97;62.64
78894;BME280;68282;42.698;23.350;2024-02-26T04:45:43;94927.00;;;10.91;62.50
78894;BME280;68282;42.698;23.350;2024-02-26T04:48:08;94935.16;;;10.91;62.67
78894;BME280;68282;42.698;23.350;2024-02-26T04:50:34;94930.16;;;10.82;62.91
78894;BME280;68282;42.698;23.350;2024-02-26T04:52:59;94939.78;;;10.90;62.93
78894;BME280;68282;42.698;23.350;2024-02-26T04:55:25;94942.38;;;10.80;63.13
78894;BME280;68282;42.698;23.350;2024-02-26T04:57:50;94933.94;;;10.81;62.76
78894;BME280;68282;42.698;23.350;2024-02-26T05:00:16;94950.91;;;10.89;62.50
78894;BME280;68282;42.698;23.350;2024-02-26T05:02:42;94938.22;;;10.77;62.95
78894;BME280;68282;42.698;23.350;2024-02-26T05:05:08;94951.06;;;10.82;62.66
78894;BME280;68282;42.698;23.350;2024-02-26T05:07:41;94949.03;;;10.72;62.82
78894;BME280;68282;42.698;23.350;2024-02-26T05:10:10;94955.88;;;10.75;62.53
78894;BME280;68282;42.698;23.350;2024-02-26T05:12:36;94964.53;;;10.72;62.61
78894;BME280;68282;42.698;23.350;2024-02-26T05:15:02;94962.50;;;10.62;62.29
78894;BME280;68282;42.698;23.350;2024-02-26T05:17:28;94969.81;;;10.61;62.50
78894;BME280;68282;42.698;23.350;2024-02-26T05:19:53;94967.94;;;10.62;62.10
78894;BME280;68282;42.698;23.350;2024-02-26T05:22:19;94984.91;;;10.69;62.09
78894;BME280;68282;42.698;23.350;2024-02-26T05:24:45;94977.81;;;10.68;62.25
78894;BME280;68282;42.698;23.350;2024-02-26T05:27:10;94981.09;;;10.70;61.99
78894;BME280;68282;42.698;23.350;2024-02-26T05:29:37;94980.25;;;10.70;62.08
78894;BME280;68282;42.698;23.350;2024-02-26T05:32:03;94986.28;;;10.72;62.27
78894;BME280;68282;42.698;23.350;2024-02-26T05:34:29;94994.78;;;10.75;62.24
78894;BME280;68282;42.698;23.350;2024-02-26T05:36:55;94996.34;;;10.71;62.13
78894;BME280;68282;42.698;23.350;2024-02-26T05:39:21;94993.31;;;10.67;62.62
78894;BME280;68282;42.698;23.350;2024-02-26T05:41:47;94990.81;;;10.66;62.57
78894;BME280;68282;42.698;23.350;2024-02-26T05:44:12;94997.44;;;10.70;62.74
78894;BME280;68282;42.698;23.350;2024-02-26T05:46:38;95002.94;;;10.75;62.69
78894;BME280;68282;42.698;23.350;2024-02-26T05:49:03;95002.78;;;10.82;62.55
78894;BME280;68282;42.698;23.350;2024-02-26T05:51:29;95003.84;;;10.81;62.75
78894;BME280;68282;42.698;23.350;2024-02-26T05:53:54;94996.69;;;10.75;62.46
78894;BME280;68282;42.698;23.350;2024-02-26T05:56:23;95001.13;;;10.81;62.71
78894;BME280;68282;42.698;23.350;2024-02-26T05:58:49;94999.25;;;10.81;63.17
78894;BME280;68282;42.698;23.350;2024-02-26T06:01:17;95003.84;;;10.81;62.99
78894;BME280;68282;42.698;23.350;2024-02-26T06:03:43;95015.41;;;10.88;63.04
78894;BME280;68282;42.698;23.350;2024-02-26T06:06:10;95008.78;;;10.84;63.18
78894;BME280;68282;42.698;23.350;2024-02-26T06:08:36;95007.28;;;10.93;62.70
78894;BME280;68282;42.698;23.350;2024-02-26T06:11:05;95011.34;;;10.91;63.13
78894;BME280;68282;42.698;23.350;2024-02-26T06:13:32;95019.59;;;10.96;62.90
78894;BME280;68282;42.698;23.350;2024-02-26T06:15:57;95016.03;;;10.95;63.18
78894;BME280;68282;42.698;23.350;2024-02-26T06:18:23;95026.66;;;10.97;63.23
78894;BME280;68282;42.698;23.350;2024-02-26T06:20:48;95020.50;;;11.02;62.92
78894;BME280;68282;42.698;23.350;2024-02-26T06:23:14;95012.56;;;11.00;63.18
78894;BME280;68282;42.698;23.350;2024-02-26T06:25:39;95012.91;;;11.04;63.14
78894;BME280;68282;42.698;23.350;2024-02-26T06:28:06;95021.16;;;11.09;nan
78894;BME280;68282;42.698;23.350;2024-02-26T06:30:32;95018.47;;;11.14;62.73
78894;BME280;68282;42.698;23.350;2024-02-26T06:32:57;95009.41;;;11.08;63.07
78894;BME280;68282;42.698;23.350;2024-02-26T06:35:23;95023.22;;;11.19;62.77
78894;BME280;68282;42.698;23.350;2024-02-26T06:37:48;95009.78;;;11.12;62.91
78894;BME280;68282;42.698;23.350;2024-02-26T06:40:15;95018.00;;;11.17;62.96
78894;BME280;68282;42.698;23.350;2024-02-26T06:42:41;95012.63;;;11.22;62.97
78894;BME280;68282;42.698;23.350;2024-02-26T06:45:09;94991.78;;;11.11;62.48
78894;BME280;68282;42.698;23.350;2024-02-26T06:47:34;95012.19;;;11.31;62.66
78894;BME280;68282;42.698;23.350;2024-02-26T06:50:00;95013.53;;;11.28;62.65
78894;BME280;68282;42.698;23.350;2024-02-26T06:52:26;95008.41;;;11.32;62.72
78894;BME280;68282;42.698;23.350;2024-02-26T06:54:52;95014.66;;;11.32;62.73
78894;BME280;68282;42.698;23.350;2024-02-26T06:57:22;95019.44;;;11.42;62.77
78894;BME280;68282;42.698;23.350;2024-02-26T06:59:47;95015.66;;;11.43;62.62
78894;BME280;68282;42.698;23.350;2024-02-26T07:02:16;95015.06;;;11.41;62.59
78894;BME280;68282;42.698;23.350;2024-02-26T07:04:45;95013.41;;;11.40;62.52
78894;BME280;68282;42.698;23.350;2024-02-26T07:07:11;95011.72;;;11.34;62.28
78894;BME280;68282;42.698;23.350;2024-02-26T07:09:37;95019.00;;;11.50;62.44
78894;BME280;68282;42.698;23.350;2024-02-26T07:12:03;95025.03;;;11.52;62.14
78894;BME280;68282;42.698;23.350;2024-02-26T07:14:28;95020.06;;;11.49;62.47
78894;BME280;68282;42.698;23.350;2024-02-26T07:16:54;95029.66;;;11.52;62.25
78894;BME280;68282;42.698;23.350;2024-02-26T07:19:19;95020.97;;;11.55;61.99
78894;BME280;68282;42.698;23.350;2024-02-26T07:21:45;95034.91;;;11.58;62.24
78894;BME280;68282;42.698;23.350;2024-02-26T07:24:10;95031.69;;;11.62;62.30
78894;BME280;68282;42.698;23.350;2024-02-26T07:26:36;95031.09;;;11.59;62.34
78894;BME280;68282;42.698;23.350;2024-02-26T07:29:09;95032.75;;;11.60;62.34
78894;BME280;68282;42.698;23.350;2024-02-26T07:31:34;95030.28;;;11.59;62.14
78894;BME280;68282;42.698;23.350;2024-02-26T07:34:03;95025.34;;;11.56;62.10
78894;BME280;68282;42.698;23.350;2024-02-26T07:36:28;95026.22;;;11.62;62.11
78894;BME280;68282;42.698;23.350;2024-02-26T07:38:54;95031.19;;;11.65;61.74
78894;BME280;68282;42.698;23.350;2024-02-26T07:41:20;95032.50;;;11.62;62.43
78894;BME280;68282;42.698;23.350;2024-02-26T07:43:46;95037.44;;;11.65;62.42
78894;BME280;68282;42.698;23.350;2024-02-26T07:46:12;95020.50;;;11.63;62.56
78894;BME280;68282;42.698;23.350;2024-02-26T07:48:38;95038.78;;;11.63;62.46
78894;BME280;68282;42.698;23.350;2024-02-26T07:51:04;95032.75;;;11.60;62.63
78894;BME280;68282;42.698;23.350;2024-02-26T07:53:33;95026.53;;;11.65;62.35
78894;BME280;68282;42.698;23.350;2024-02-26T07:55:58;95014.25;;;11.63;62.70
78894;BME280;68282;42.698;23.350;2024-02-26T07:58:24;95014.75;;;11.59;62.55
78894;BME280;68282;42.698;23.350;2024-02-26T08:00:50;95023.31;;;11.68;62.38
78894;BME280;68282;42.698;23.350;2024-02-26T08:03:15;95022.56;;;11.73;62.55
78894;BME280;68282;42.698;23.350;2024-02-26T08:05:44;95016.03;;;11.74;62.51
78894;BME280;68282;42.698;23.350;2024-02-26T08:08:11;95004.56;;;11.72;62.80
78894;BME280;68282;42.698;23.350;2024-02-26T08:10:37;95004.56;;;11.72;62.75
78894;BME280;68282;42.698;23.350;2024-02-26T08:13:05;95010.72;;;11.84;62.94
78894;BME280;68282;42.698;23.350;2024-02-26T08:15:32;95010.78;;;11.89;62.42
78894;BME280;68282;42.698;23.350;2024-02-26T08:18:01;95013.69;;;11.83;62.73
78894;BME280;68282;42.698;23.350;2024-02-26T08:20:30;95005.84;;;11.86;62.71
78894;BME280;68282;42.698;23.350;2024-02-26T08:22:56;95020.22;;;12.04;62.13
78894;BME280;68282;42.698;23.350;2024-02-26T08:25:23;95013.09;;;11.98;62.46
78894;BME280;68282;42.698;23.350;2024-02-26T08:27:48;95021.88;;;12.05;62.37
78894;BME280;68282;42.698;23.350;2024-02-26T08:30:15;95012.00;;;11.99;62.29
78894;BME280;68282;42.698;23.350;2024-02-26T08:32:47;95025.78;;;12.14;61.94
78894;BME280;68282;42.698;23.350;2024-02-26T08:35:14;94993.22;;;12.02;61.79
78894;BME280;68282;42.698;23.350;2024-02-26T08:37:44;95002.03;;;12.10;62.02
78894;BME280;68282;42.698;23.350;2024-02-26T08:40:14;95014.94;;;12.19;61.81
78894;BME280;68282;42.698;23.350;2024-02-26T08:42:39;95007.94;;;12.29;61.92
78894;BME280;68282;42.698;23.350;2024-02-26T08:45:09;95003.66;;;12.33;61.69
78894;BME280;68282;42.698;23.350;2024-02-26T08:53:12;94992.84;;;12.43;62.00
78894;BME280;68282;42.698;23.350;2024-02-26T08:55:40;94999.47;;;12.52;61.80
78894;BME280;68282;42.698;23.350;2024-02-26T08:58:06;95019.50;;;12.68;62.06
78894;BME280;68282;42.698;23.350;2024-02-26T09:00:32;95007.88;;;12.78;62.06
78894;BME280;68282;42.698;23.350;2024-02-26T09:02:58;94994.75;;;12.80;60.74
78894;BME280;68282;42.698;23.350;2024-02-26T09:05:23;95001.72;;;12.93;64.04
78894;BME280;68282;42.698;23.350;2024-02-26T09:07:49;94992.66;;;13.30;66.67
78894;BME280;68282;42.698;23.350;2024-02-26T09:10:17;95002.44;;;13.69;69.81
78894;BME280;68282;42.698;23.350;2024-02-26T09:12:43;95009.31;;;13.77;64.39
78894;BME280;68282;42.698;23.350;2024-02-26T09:15:08;94993.97;;;13.60;60.90
78894;BME280;68282;42.698;23.350;2024-02-26T09:17:34;94981.88;;;13.51;59.44
78894;BME280;68282;42.698;23.350;2024-02-26T09:20:00;94987.03;;;13.48;60.39
78894;BME280;68282;42.698;23.350;2024-02-26T09:22:25;94983.16;;;13.38;59.74
78894;BME280;68282;42.698;23.350;2024-02-26T09:24:51;94990.06;;;13.46;59.97
78894;BME280;68282;42.698;23.350;2024-02-26T09:27:17;94980.72;;;13.42;59.86
78894;BME280;68282;42.698;23.350;2024-02-26T09:29:43;94974.19;;;13.43;59.53
78894;BME280;68282;42.698;23.350;2024-02-26T09:32:11;94984.34;;;13.53;58.84
78894;BME280;68282;42.698;23.350;2024-02-26T09:42:25;94977.59;;;13.71;56.56
78894;BME280;68282;42.698;23.350;2024-02-26T09:44:57;94977.88;;;13.74;56.63
78894;BME280;68282;42.698;23.350;2024-02-26T09:47:28;94963.31;;;13.53;56.57
78894;BME280;68282;42.698;23.350;2024-02-26T09:50:00;94962.53;;;13.63;56.23
78894;BME280;68282;42.698;23.350;2024-02-26T09:52:28;94957.41;;;13.77;56.55
78894;BME280;68282;42.698;23.350;2024-02-26T09:54:57;94967.00;;;13.85;55.17
78894;BME280;68282;42.698;23.350;2024-02-26T09:57:23;94972.75;;;13.83;55.54
78894;BME280;68282;42.698;23.350;2024-02-26T09:59:51;94963.72;;;13.93;55.54
78894;BME280;68282;42.698;23.350;2024-02-26T10:02:22;94945.13;;;13.85;54.64
78894;BME280;68282;42.698;23.350;2024-02-26T10:04:48;94972.25;;;14.07;54.66
78894;BME280;68282;42.698;23.350;2024-02-26T10:07:16;94960.75;;;14.00;54.09
78894;BME280;68282;42.698;23.350;2024-02-26T10:09:42;94957.44;;;13.98;54.24
78894;BME280;68282;42.698;23.350;2024-02-26T10:12:10;94970.31;;;14.02;53.43
78894;BME280;68282;42.698;23.350;2024-02-26T10:14:40;94953.63;;;13.99;53.97
78894;BME280;68282;42.698;23.350;2024-02-26T10:17:07;94945.97;;;13.90;53.65
78894;BME280;68282;42.698;23.350;2024-02-26T10:19:36;94938.56;;;13.86;52.87
78894;BME280;68282;42.698;23.350;2024-02-26T10:22:01;94947.31;;;13.93;52.85
78894;BME280;68282;42.698;23.350;2024-02-26T10:24:29;94944.06;;;14.01;52.10
78894;BME280;68282;42.698;23.350;2024-02-26T10:26:55;94943.53;;;13.99;52.17
78894;BME280;68282;42.698;23.350;2024-02-26T10:29:24;94947.63;;;14.02;51.52
78894;BME280;68282;42.698;23.350;2024-02-26T10:31:51;94931.47;;;13.85;51.75
78894;BME280;68282;42.698;23.350;2024-02-26T10:34:17;94933.13;;;13.96;51.87
78894;BME280;68282;42.698;23.350;2024-02-26T10:36:43;94939.41;;;13.91;52.25
78894;BME280;68282;42.698;23.350;2024-02-26T10:39:12;94932.03;;;14.02;51.74
78894;BME280;68282;42.698;23.350;2024-02-26T10:41:40;94932.88;;;14.08;52.07
78894;BME280;68282;42.698;23.350;2024-02-26T10:44:11;94928.78;;;14.16;52.46
78894;BME280;68282;42.698;23.350;2024-02-26T10:46:38;94918.66;;;14.21;51.57
78894;BME280;68282;42.698;23.350;2024-02-26T10:49:04;94929.63;;;14.32;51.87
78894;BME280;68282;42.698;23.350;2024-02-26T10:51:31;94924.72;;;14.44;51.10
78894;BME280;68282;42.698;23.350;2024-02-26T10:53:59;94921.16;;;14.44;50.96
78894;BME280;68282;42.698;23.350;2024-02-26T10:56:30;94919.25;;;14.49;50.08
78894;BME280;68282;42.698;23.350;2024-02-26T10:59:00;94912.41;;;14.42;50.61
78894;BME280;68282;42.698;23.350;2024-02-26T11:01:27;94914.84;;;14.43;50.26
78894;BME280;68282;42.698;23.350;2024-02-26T11:03:58;94902.28;;;14.32;50.64
78894;BME280;68282;42.698;23.350;2024-02-26T11:06:26;94898.47;;;14.38;50.80
78894;BME280;68282;42.698;23.350;2024-02-26T11:08:52;94910.75;;;14.51;51.39
78894;BME280;68282;42.698;23.350;2024-02-26T11:11:19;94903.66;;;14.60;50.83
78894;BME280;68282;42.698;23.350;2024-02-26T11:13:47;94906.94;;;14.62;50.86
78894;BME280;68282;42.698;23.350;2024-02-26T11:16:22;94903.34;;;14.62;51.02
78894;BME280;68282;42.698;23.350;2024-02-26T11:18:48;94898.72;;;14.67;49.52
78894;BME280;68282;42.698;23.350;2024-02-26T11:21:18;94905.84;;;14.74;49.11
78894;BME280;68282;42.698;23.350;2024-02-26T11:23:56;94893.81;;;14.75;49.10
78894;BME280;68282;42.698;23.350;2024-02-26T11:26:22;94884.78;;;14.79;49.10
78894;BME280;68282;42.698;23.350;2024-02-26T11:28:53;94893.25;;;14.88;48.51
78894;BME280;68282;42.698;23.350;2024-02-26T11:31:25;94892.97;;;14.74;48.17
78894;BME280;68282;42.698;23.350;2024-02-26T11:33:53;94887.78;;;14.67;48.72
78894;BME280;68282;42.698;23.350;2024-02-26T11:36:19;94893.50;;;14.66;47.52
78894;BME280;68282;42.698;23.350;2024-02-26T11:38:46;94888.88;;;14.61;47.92
78894;BME280;68282;42.698;23.350;2024-02-26T11:41:15;94880.41;;;14.68;48.74
78894;BME280;68282;42.698;23.350;2024-02-26T11:46:33;94891.06;;;14.80;49.24
78894;BME280;68282;42.698;23.350;2024-02-26T11:51:51;94870.25;;;14.84;48.39
78894;BME280;68282;42.698;23.350;2024-02-26T11:54:45;94875.44;;;14.86;47.93
78894;BME280;68282;42.698;23.350;2024-02-26T11:57:27;94886.97;;;14.82;48.55
78894;BME280;68282;42.698;23.350;2024-02-26T11:59:54;94879.00;;;14.86;48.17
78894;BME280;68282;42.698;23.350;2024-02-26T12:02:40;94866.97;;;14.87;48.66
78894;BME280;68282;42.698;23.350;2024-02-26T12:05:19;94873.81;;;14.90;47.80
78894;BME280;68282;42.698;23.350;2024-02-26T12:07:47;94870.50;;;14.88;47.95
78894;BME280;68282;42.698;23.350;2024-02-26T12:10:27;94873.25;;;14.93;48.82
78894;BME280;68282;42.698;23.350;2024-02-26T12:12:55;94875.41;;;15.01;49.01
78894;BME280;68282;42.698;23.350;2024-02-26T12:15:23;94882.53;;;15.02;47.40
78894;BME280;68282;42.698;23.350;2024-02-26T12:17:49;94874.34;;;14.92;47.72
78894;BME280;68282;42.698;23.350;2024-02-26T12:20:17;94871.31;;;14.98;47.53
78894;BME280;68282;42.698;23.350;2024-02-26T12:22:46;94868.03;;;14.91;47.36
78894;BME280;68282;42.698;23.350;2024-02-26T12:25:14;94861.19;;;14.89;46.38
78894;BME280;68282;42.698;23.350;2024-02-26T12:27:39;94877.88;;;15.03;47.13
78894;BME280;68282;42.698;23.350;2024-02-26T12:30:05;94871.81;;;15.16;45.32
78894;BME280;68282;42.698;23.350;2024-02-26T12:32:32;94862.50;;;15.12;45.07
78894;BME280;68282;42.698;23.350;2024-02-26T12:34:58;94882.47;;;15.18;45.55
78894;BME280;68282;42.698;23.350;2024-02-26T12:37:25;94877.28;;;15.21;44.85
78894;BME280;68282;42.698;23.350;2024-02-26T12:39:51;94869.88;;;15.17;44.36
78894;BME280;68282;42.698;23.350;2024-02-26T12:42:17;94880.81;;;15.27;43.55
78894;BME280;68282;42.698;23.350;2024-02-26T12:44:46;94876.16;;;15.22;44.04
78894;BME280;68282;42.698;23.350;2024-02-26T12:47:12;94885.19;;;15.28;43.52
78894;BME280;68282;42.698;23.350;2024-02-26T12:49:47;94878.34;;;15.30;42.71
78894;BME280;68282;42.698;23.350;2024-02-26T12:52:14;94879.19;;;15.21;43.57
78894;BME280;68282;42.698;23.350;2024-02-26T12:54:42;94873.41;;;15.22;43.76
78894;BME280;68282;42.698;23.350;2024-02-26T12:57:08;94860.53;;;15.33;42.61
78894;BME280;68282;42.698;23.350;2024-02-26T12:59:35;94867.03;;;15.48;42.75
78894;BME280;68282;42.698;23.350;2024-02-26T13:02:02;94862.31;;;15.58;42.89
78894;BME280;68282;42.698;23.350;2024-02-26T13:04:29;94861.47;;;15.63;42.65
78894;BME280;68282;42.698;23.350;2024-02-26T13:06:56;94843.69;;;15.60;42.15